createdAt,value
2018-09-17T00:02:22.684Z,7.80
2018-09-17T00:04:51.330Z,7.53
2018-09-17T00:07:19.911Z,7.60
2018-09-17T00:09:48.571Z,8.03
2018-09-17T00:12:17.168Z,8.57
2018-09-17T00:14:45.848Z,7.43
2018-09-17T00:17:14.548Z,7.27
2018-09-17T00:19:43.178Z,8.17
2018-09-17T00:22:11.854Z,8.23
2018-09-17T00:24:40.538Z,8.80
2018-09-17T00:27:09.155Z,8.03
2018-09-17T00:29:37.891Z,8.17
2018-09-17T00:32:07.321Z,8.53
2018-09-17T00:34:35.951Z,7.40
2018-09-17T00:37:04.647Z,7.70
2018-09-17T00:39:33.290Z,7.90
2018-09-17T00:42:01.948Z,7.83
2018-09-17T00:44:30.627Z,8.40
2018-09-17T00:46:59.274Z,8.13
2018-09-17T00:49:27.926Z,8.80
2018-09-17T00:51:56.607Z,8.40
2018-09-17T00:54:25.287Z,8.43
2018-09-17T00:56:53.862Z,8.60
2018-09-17T00:59:22.507Z,7.90
2018-09-17T01:01:51.168Z,8.43
2018-09-17T01:04:19.823Z,8.40
2018-09-17T01:06:48.499Z,8.93
2018-09-17T01:09:22.399Z,9.30
2018-09-17T01:11:51.171Z,8.80
2018-09-17T01:14:19.811Z,9.90
2018-09-17T01:16:48.460Z,9.00
2018-09-17T01:19:17.111Z,10.03
2018-09-17T01:21:45.811Z,9.43
2018-09-17T01:24:14.447Z,9.77
2018-09-17T01:26:43.618Z,9.57
2018-09-17T01:29:12.255Z,10.10
2018-09-17T01:31:40.855Z,9.87
2018-09-17T01:34:09.551Z,10.37
2018-09-17T01:36:38.205Z,10.63
2018-09-17T01:39:09.026Z,9.93
2018-09-17T01:41:37.658Z,9.90
2018-09-17T01:44:06.547Z,10.20
2018-09-17T01:46:35.315Z,10.80
2018-09-17T01:49:03.973Z,10.73
2018-09-17T01:51:32.617Z,10.83
2018-09-17T01:54:01.247Z,10.73
2018-09-17T01:56:29.977Z,12.97
2018-09-17T01:58:58.588Z,12.67
2018-09-17T02:01:27.207Z,12.10
2018-09-17T02:03:55.863Z,11.53
2018-09-17T02:06:24.496Z,12.00
2018-09-17T02:08:53.112Z,12.97
2018-09-17T02:11:21.809Z,12.60
2018-09-17T02:13:50.532Z,13.67
2018-09-17T02:16:19.150Z,13.70
2018-09-17T02:18:47.952Z,13.10
2018-09-17T02:21:16.580Z,12.43
2018-09-17T02:23:45.262Z,12.67
2018-09-17T02:26:13.936Z,13.00
2018-09-17T02:28:42.651Z,13.00
2018-09-17T02:31:11.290Z,13.47
2018-09-17T02:33:39.917Z,12.00
2018-09-17T02:36:08.603Z,12.80
2018-09-17T02:38:37.275Z,13.47
2018-09-17T02:41:06.239Z,13.13
2018-09-17T02:43:34.875Z,12.80
2018-09-17T02:46:03.516Z,14.87
2018-09-17T02:48:32.221Z,13.60
2018-09-17T02:51:00.842Z,14.13
2018-09-17T02:53:29.572Z,13.67
2018-09-17T02:55:58.226Z,14.03
2018-09-17T02:58:26.983Z,13.10
2018-09-17T03:00:55.678Z,13.27
2018-09-17T03:03:24.296Z,13.07
2018-09-17T03:05:54.154Z,12.50
2018-09-17T03:08:22.802Z,13.17
2018-09-17T03:10:51.487Z,12.83
2018-09-17T03:13:20.188Z,12.90
2018-09-17T03:15:55.026Z,12.97
2018-09-17T03:18:36.120Z,13.87
2018-09-17T03:21:06.632Z,13.60
2018-09-17T03:23:36.630Z,13.57
2018-09-17T03:26:05.434Z,13.30
2018-09-17T03:28:34.107Z,13.63
2018-09-17T03:31:02.735Z,13.70
2018-09-17T03:33:31.429Z,13.30
2018-09-17T03:36:00.084Z,13.57
2018-09-17T03:38:36.299Z,14.30
2018-09-17T03:41:06.059Z,15.23
2018-09-17T03:43:35.552Z,14.00
2018-09-17T03:46:04.200Z,13.40
2018-09-17T03:48:33.991Z,14.63
2018-09-17T03:51:03.328Z,14.10
2018-09-17T03:53:32.331Z,13.47
2018-09-17T03:56:01.096Z,13.90
2018-09-17T03:58:30.144Z,13.37
2018-09-17T04:00:59.411Z,14.93
2018-09-17T04:03:28.063Z,13.47
2018-09-17T04:05:56.791Z,14.10
2018-09-17T04:08:25.445Z,14.50
2018-09-17T04:10:54.128Z,14.70
2018-09-17T04:13:22.761Z,14.30
2018-09-17T04:15:51.386Z,15.90
2018-09-17T04:18:20.031Z,14.30
2018-09-17T04:20:48.610Z,15.10
2018-09-17T04:23:37.595Z,14.83
2018-09-17T04:26:07.768Z,13.90
2018-09-17T04:28:37.007Z,14.27
2018-09-17T04:31:05.918Z,14.30
2018-09-17T04:33:38.623Z,14.63
2018-09-17T04:36:07.690Z,15.23
2018-09-17T04:38:36.355Z,15.20
2018-09-17T04:41:05.135Z,15.93
2018-09-17T04:43:33.722Z,14.40
2018-09-17T04:46:02.395Z,15.03
2018-09-17T04:48:31.252Z,17.27
2018-09-17T04:50:59.934Z,15.63
2018-09-17T04:53:28.610Z,17.50
2018-09-17T04:55:57.269Z,16.57
2018-09-17T04:58:25.920Z,15.70
2018-09-17T05:00:54.539Z,16.80
2018-09-17T05:03:23.327Z,17.13
2018-09-17T05:05:52.042Z,17.40
2018-09-17T05:08:20.687Z,17.00
2018-09-17T05:10:49.252Z,15.40
2018-09-17T05:13:17.981Z,17.67
2018-09-17T05:15:46.503Z,18.97
2018-09-17T05:18:15.120Z,17.33
2018-09-17T05:20:43.826Z,16.60
2018-09-17T05:23:12.427Z,18.17
2018-09-17T05:25:41.108Z,17.90
2018-09-17T05:28:09.806Z,17.70
2018-09-17T05:30:38.455Z,18.00
2018-09-17T05:33:07.139Z,17.53
2018-09-17T05:35:35.860Z,17.77
2018-09-17T05:38:04.551Z,19.53
2018-09-17T05:40:33.138Z,17.27
2018-09-17T05:43:02.135Z,17.50
2018-09-17T05:45:30.727Z,16.77
2018-09-17T05:47:59.367Z,17.60
2018-09-17T05:50:27.995Z,18.43
2018-09-17T05:52:56.586Z,18.00
2018-09-17T05:55:25.219Z,17.10
2018-09-17T05:57:53.872Z,17.57
2018-09-17T06:00:22.567Z,18.70
2018-09-17T06:02:51.292Z,17.63
2018-09-17T06:05:19.897Z,17.40
2018-09-17T06:07:48.548Z,18.27
2018-09-17T06:10:17.612Z,20.00
2018-09-17T06:12:47.591Z,18.53
2018-09-17T06:15:16.401Z,20.43
2018-09-17T06:17:45.127Z,18.77
2018-09-17T06:20:13.787Z,18.47
2018-09-17T06:22:42.436Z,19.43
2018-09-17T06:25:11.064Z,18.53
2018-09-17T06:27:39.692Z,20.07
2018-09-17T06:30:08.435Z,19.30
2018-09-17T06:32:37.103Z,18.77
2018-09-17T06:35:05.812Z,20.80
2018-09-17T06:37:34.466Z,20.80
2018-09-17T06:40:03.091Z,21.70
2018-09-17T06:42:31.950Z,19.53
2018-09-17T06:45:00.612Z,19.10
2018-09-17T06:47:29.226Z,19.90
2018-09-17T06:49:57.907Z,20.80
2018-09-17T06:52:26.564Z,19.57
2018-09-17T06:54:55.204Z,18.97
2018-09-17T06:57:23.841Z,19.23
2018-09-17T06:59:52.496Z,21.30
2018-09-17T07:02:21.164Z,19.20
2018-09-17T07:04:50.189Z,19.67
2018-09-17T07:07:18.820Z,17.60
2018-09-17T07:09:47.443Z,18.30
2018-09-17T07:12:16.111Z,16.50
2018-09-17T07:14:44.713Z,15.70
2018-09-17T07:17:13.387Z,15.17
2018-09-17T07:19:42.010Z,14.70
2018-09-17T07:22:10.611Z,15.00
2018-09-17T07:24:39.327Z,14.60
2018-09-17T07:27:08.004Z,13.87
2018-09-17T07:29:36.647Z,13.83
2018-09-17T07:32:05.390Z,13.70
2018-09-17T07:34:34.076Z,11.50
2018-09-17T07:37:02.756Z,11.93
2018-09-17T07:39:31.423Z,15.97
2018-09-17T07:42:00.080Z,13.47
2018-09-17T07:44:28.718Z,12.07
2018-09-17T07:46:57.370Z,10.23
2018-09-17T07:49:26.072Z,10.87
2018-09-17T07:51:54.698Z,10.93
2018-09-17T07:54:23.335Z,10.90
2018-09-17T07:56:51.996Z,11.40
2018-09-17T07:59:20.655Z,11.00
2018-09-17T08:01:49.398Z,10.47
2018-09-17T08:04:18.044Z,10.23
2018-09-17T08:06:47.027Z,10.53
2018-09-17T08:09:15.664Z,12.80
2018-09-17T08:11:44.667Z,10.30
2018-09-17T08:14:14.686Z,9.90
2018-09-17T08:16:43.332Z,10.60
2018-09-17T08:19:11.976Z,10.77
2018-09-17T08:21:40.641Z,10.13
2018-09-17T08:24:09.283Z,10.30
2018-09-17T08:26:37.923Z,10.90
2018-09-17T08:29:06.886Z,9.97
2018-09-17T08:31:35.556Z,10.10
2018-09-17T08:34:04.268Z,10.67
2018-09-17T08:36:32.933Z,10.47
2018-09-17T08:39:01.571Z,9.80
2018-09-17T08:41:30.231Z,9.70
2018-09-17T08:43:58.848Z,9.27
2018-09-17T08:46:27.542Z,9.60
2018-09-17T08:48:56.183Z,9.60
2018-09-17T08:51:24.830Z,8.13
2018-09-17T08:53:53.506Z,9.30
2018-09-17T08:56:26.276Z,9.23
2018-09-17T08:58:59.747Z,9.80
2018-09-17T09:01:29.367Z,8.43
2018-09-17T09:04:03.394Z,8.43
2018-09-17T09:06:37.218Z,8.40
2018-09-17T09:09:08.799Z,7.93
2018-09-17T09:11:42.751Z,7.83
2018-09-17T09:14:16.739Z,6.97
2018-09-17T09:16:45.340Z,7.30
2018-09-17T09:19:13.935Z,6.80
2018-09-17T09:21:42.661Z,6.63
2018-09-17T09:24:11.332Z,6.73
2018-09-17T09:26:39.979Z,6.37
2018-09-17T09:29:08.642Z,6.87
2018-09-17T09:31:37.343Z,6.90
2018-09-17T09:34:06.015Z,5.83
2018-09-17T09:36:34.656Z,6.47
2018-09-17T09:39:03.426Z,5.40
2018-09-17T09:41:32.067Z,5.73
2018-09-17T09:44:00.686Z,5.17
2018-09-17T09:46:29.391Z,4.70
2018-09-17T09:48:58.031Z,5.20
2018-09-17T09:51:26.620Z,5.50
2018-09-17T09:53:55.266Z,4.80
2018-09-17T09:56:24.017Z,5.13
2018-09-17T09:58:52.724Z,4.37
2018-09-17T10:01:27.352Z,4.07
2018-09-17T10:04:01.236Z,3.90
2018-09-17T10:06:29.834Z,4.23
2018-09-17T10:09:03.632Z,4.30
2018-09-17T10:11:37.457Z,3.67
2018-09-17T10:14:11.415Z,4.87
2018-09-17T10:16:44.258Z,3.90
2018-09-17T10:19:18.272Z,4.00
2018-09-17T10:21:47.014Z,3.50
2018-09-17T10:24:15.651Z,4.40
2018-09-17T10:26:44.291Z,4.10
2018-09-17T10:29:12.950Z,3.70
2018-09-17T10:31:41.667Z,3.10
2018-09-17T10:34:10.294Z,3.80
2018-09-17T10:36:38.943Z,4.30
2018-09-17T10:39:10.388Z,3.80
2018-09-17T10:41:39.079Z,2.30
2018-09-17T10:44:07.811Z,3.87
2018-09-17T10:46:37.136Z,2.60
2018-09-17T10:49:06.030Z,3.17
2018-09-17T10:51:34.688Z,2.90
2018-09-17T10:54:03.327Z,2.83
2018-09-17T10:56:32.035Z,2.67
2018-09-17T10:59:00.662Z,2.43
2018-09-17T11:01:29.263Z,3.20
2018-09-17T11:03:57.927Z,3.77
2018-09-17T11:06:26.553Z,3.27
2018-09-17T11:08:55.163Z,3.80
2018-09-17T11:11:23.991Z,2.80
2018-09-17T11:13:52.683Z,3.70
2018-09-17T11:16:21.296Z,2.83
2018-09-17T11:18:50.063Z,2.67
2018-09-17T11:21:18.747Z,3.00
2018-09-17T11:23:47.702Z,2.70
2018-09-17T11:26:16.344Z,3.20
2018-09-17T11:28:44.963Z,2.97
2018-09-17T11:31:13.603Z,2.90
2018-09-17T11:33:42.562Z,3.03
2018-09-17T11:36:11.239Z,2.57
2018-09-17T11:38:39.896Z,2.50
2018-09-17T11:41:08.570Z,3.80
2018-09-17T11:43:37.426Z,3.50
2018-09-17T11:46:06.092Z,3.07
2018-09-17T11:48:34.736Z,3.17
2018-09-17T11:51:03.743Z,3.30
2018-09-17T11:53:32.574Z,3.33
2018-09-17T11:56:01.235Z,3.07
2018-09-17T11:58:29.898Z,3.30
2018-09-17T12:01:03.768Z,3.60
2018-09-17T12:03:37.604Z,2.87
2018-09-17T12:06:06.291Z,2.50
2018-09-17T12:08:34.919Z,2.90
2018-09-17T12:11:03.631Z,3.10
2018-09-17T12:13:32.262Z,3.40
2018-09-17T12:16:00.955Z,3.70
2018-09-17T12:18:29.628Z,2.70
2018-09-17T12:20:58.236Z,3.20
2018-09-17T12:23:26.875Z,2.70
2018-09-17T12:25:55.604Z,2.57
2018-09-17T12:28:24.298Z,2.40
2018-09-17T12:30:53.011Z,2.73
2018-09-17T12:33:21.722Z,2.60
2018-09-17T12:35:50.378Z,2.50
2018-09-17T12:38:18.977Z,3.20
2018-09-17T12:40:47.588Z,2.70
2018-09-17T12:43:16.271Z,2.30
2018-09-17T12:45:44.940Z,2.33
2018-09-17T12:48:13.658Z,2.50
2018-09-17T12:50:42.305Z,2.63
2018-09-17T12:53:11.035Z,2.60
2018-09-17T12:55:39.642Z,3.00
2018-09-17T12:58:08.342Z,2.27
2018-09-17T13:00:36.953Z,3.47
2018-09-17T13:03:05.754Z,3.00
2018-09-17T13:05:34.410Z,2.20
2018-09-17T13:08:03.066Z,2.60
2018-09-17T13:10:31.675Z,2.30
2018-09-17T13:13:00.366Z,2.40
2018-09-17T13:15:29.036Z,2.40
2018-09-17T13:17:57.659Z,2.10
2018-09-17T13:20:26.264Z,2.10
2018-09-17T13:22:55.083Z,2.60
2018-09-17T13:25:23.660Z,2.50
2018-09-17T13:27:55.160Z,2.77
2018-09-17T13:30:23.786Z,2.37
2018-09-17T13:32:52.691Z,2.50
2018-09-17T13:35:21.306Z,1.87
2018-09-17T13:37:49.904Z,2.17
2018-09-17T13:40:18.595Z,2.33
2018-09-17T13:42:47.256Z,2.53
2018-09-17T13:45:16.035Z,2.20
2018-09-17T13:47:44.673Z,1.93
2018-09-17T13:50:13.339Z,1.90
2018-09-17T13:52:43.851Z,2.30
2018-09-17T13:55:12.542Z,2.27
2018-09-17T13:57:41.209Z,2.60
2018-09-17T14:00:09.831Z,2.20
2018-09-17T14:02:38.549Z,2.07
2018-09-17T14:05:07.251Z,2.20
2018-09-17T14:07:36.023Z,2.17
2018-09-17T14:10:04.958Z,2.37
2018-09-17T14:12:33.588Z,2.60
2018-09-17T14:15:02.311Z,2.23
2018-09-17T14:17:31.170Z,2.20
2018-09-17T14:19:59.964Z,2.77
2018-09-17T14:22:28.724Z,2.40
2018-09-17T14:24:57.379Z,2.27
2018-09-17T14:27:26.056Z,2.57
2018-09-17T14:29:54.762Z,2.37
2018-09-17T14:32:28.845Z,2.23
2018-09-17T14:34:58.384Z,2.50
2018-09-17T14:37:27.142Z,2.40
2018-09-17T14:39:55.830Z,2.20
2018-09-17T14:42:28.781Z,2.30
2018-09-17T14:44:57.690Z,1.63
2018-09-17T14:47:26.278Z,2.00
2018-09-17T14:49:55.143Z,2.47
2018-09-17T14:52:23.915Z,2.93
2018-09-17T14:54:52.426Z,3.33
2018-09-17T14:57:21.126Z,2.43
2018-09-17T14:59:49.792Z,2.57
2018-09-17T15:02:18.443Z,2.63
2018-09-17T15:04:47.084Z,2.23
2018-09-17T15:07:15.759Z,3.03
2018-09-17T15:09:44.394Z,2.57
2018-09-17T15:12:13.069Z,2.60
2018-09-17T15:14:41.761Z,2.27
2018-09-17T15:17:10.698Z,2.83
2018-09-17T15:19:39.375Z,3.00
2018-09-17T15:22:08.080Z,2.53
2018-09-17T15:24:36.666Z,2.63
2018-09-17T15:27:05.380Z,2.67
2018-09-17T15:29:33.970Z,2.50
2018-09-17T15:32:02.650Z,2.57
2018-09-17T15:34:31.342Z,2.53
2018-09-17T15:36:59.873Z,2.20
2018-09-17T15:39:28.528Z,2.30
2018-09-17T15:41:57.180Z,1.90
2018-09-17T15:44:25.947Z,2.30
2018-09-17T15:46:54.572Z,3.00
2018-09-17T15:49:23.106Z,2.63
2018-09-17T15:51:51.799Z,2.30
2018-09-17T15:54:20.430Z,2.63
2018-09-17T15:56:49.169Z,2.20
2018-09-17T15:59:17.888Z,2.27
2018-09-17T16:01:46.735Z,2.10
2018-09-17T16:04:15.422Z,2.43
2018-09-17T16:06:44.031Z,2.60
2018-09-17T16:09:12.680Z,2.77
2018-09-17T16:11:41.351Z,2.50
2018-09-17T16:14:10.096Z,2.43
2018-09-17T16:16:38.691Z,2.30
2018-09-17T16:19:07.726Z,2.87
2018-09-17T16:21:36.327Z,2.47
2018-09-17T16:24:04.960Z,2.50
2018-09-17T16:26:33.655Z,2.50
2018-09-17T16:29:02.247Z,2.70
2018-09-17T16:31:30.927Z,2.70
2018-09-17T16:33:59.591Z,2.43
2018-09-17T16:36:28.259Z,3.07
2018-09-17T16:38:56.875Z,2.23
2018-09-17T16:41:25.575Z,2.67
2018-09-17T16:43:54.318Z,2.50
2018-09-17T16:46:23.004Z,2.30
2018-09-17T16:48:51.675Z,2.63
2018-09-17T16:51:20.285Z,2.50
2018-09-17T16:53:49.033Z,2.87
2018-09-17T16:56:17.597Z,2.30
2018-09-17T16:58:46.390Z,3.03
2018-09-17T17:01:15.003Z,2.40
2018-09-17T17:03:43.655Z,2.50
2018-09-17T17:06:12.300Z,7.20
2018-09-17T17:08:40.936Z,13.40
2018-09-17T17:11:09.635Z,4.73
2018-09-17T17:13:38.187Z,3.20
2018-09-17T17:16:06.917Z,3.10
2018-09-17T17:18:35.510Z,3.13
2018-09-17T17:21:04.159Z,2.80
2018-09-17T17:23:32.782Z,3.03
2018-09-17T17:26:01.435Z,3.00
2018-09-17T17:28:30.132Z,2.90
2018-09-17T17:30:58.771Z,3.07
2018-09-17T17:33:27.455Z,3.13
2018-09-17T17:35:56.119Z,4.20
2018-09-17T17:38:24.774Z,2.90
2018-09-17T17:40:53.377Z,3.13
2018-09-17T17:43:22.079Z,3.80
2018-09-17T17:45:50.781Z,2.93
2018-09-17T17:48:19.372Z,3.10
2018-09-17T17:50:48.043Z,2.57
2018-09-17T17:53:16.782Z,4.97
2018-09-17T17:55:47.015Z,3.33
2018-09-17T17:58:15.722Z,4.30
2018-09-17T18:00:44.392Z,3.40
2018-09-17T18:03:29.164Z,2.87
2018-09-17T18:05:57.734Z,3.50
2018-09-17T18:08:26.599Z,3.83
2018-09-17T18:10:55.206Z,4.40
2018-09-17T18:13:23.889Z,3.93
2018-09-17T18:15:52.611Z,3.93
2018-09-17T18:18:21.199Z,4.87
2018-09-17T18:20:49.852Z,4.90
2018-09-17T18:23:18.507Z,4.90
2018-09-17T18:25:47.159Z,4.70
2018-09-17T18:28:15.778Z,4.47
2018-09-17T18:30:44.440Z,5.10
2018-09-17T18:33:13.170Z,4.67
2018-09-17T18:35:41.808Z,5.00
2018-09-17T18:38:10.923Z,4.37
2018-09-17T18:40:39.570Z,5.20
2018-09-17T18:43:08.275Z,5.43
2018-09-17T18:45:36.904Z,6.30
2018-09-17T18:48:05.556Z,6.20
2018-09-17T18:50:34.203Z,5.80
2018-09-17T18:53:02.884Z,5.47
2018-09-17T18:55:31.479Z,4.93
2018-09-17T18:58:00.138Z,5.20
2018-09-17T19:00:28.804Z,4.73
2018-09-17T19:02:57.533Z,5.03
2018-09-17T19:05:26.114Z,4.30
2018-09-17T19:07:54.758Z,5.17
2018-09-17T19:10:23.451Z,5.47
2018-09-17T19:12:52.048Z,5.50
2018-09-17T19:15:26.767Z,6.00
2018-09-17T19:17:59.724Z,5.43
2018-09-17T19:20:28.348Z,6.30
2018-09-17T19:23:02.222Z,5.43
2018-09-17T19:25:30.887Z,5.77
2018-09-17T19:28:05.167Z,5.80
2018-09-17T19:30:33.819Z,6.00
2018-09-17T19:33:02.400Z,4.93
2018-09-17T19:35:31.083Z,6.00
2018-09-17T19:38:05.007Z,5.10
2018-09-17T19:40:33.705Z,5.43
2018-09-17T19:43:02.403Z,6.23
2018-09-17T19:45:36.379Z,6.33
2018-09-17T19:48:04.942Z,5.87
2018-09-17T19:50:38.854Z,6.97
2018-09-17T19:53:07.487Z,6.17
2018-09-17T19:55:36.178Z,6.40
2018-09-17T19:58:10.195Z,6.33
2018-09-17T20:00:39.005Z,5.77
2018-09-17T20:03:07.494Z,7.80
2018-09-17T20:05:41.538Z,6.57
2018-09-17T20:08:10.131Z,6.70
2018-09-17T20:10:39.018Z,7.10
2018-09-17T20:13:07.746Z,7.73
2018-09-17T20:15:36.482Z,7.20
2018-09-17T20:18:05.088Z,9.03
2018-09-17T20:20:33.731Z,7.37
2018-09-17T20:23:02.510Z,7.50
2018-09-17T20:25:31.199Z,7.30
2018-09-17T20:27:59.783Z,7.10
2018-09-17T20:30:28.415Z,8.27
2018-09-17T20:32:57.120Z,7.97
2018-09-17T20:35:25.739Z,7.20
2018-09-17T20:37:54.386Z,8.20
2018-09-17T20:40:23.023Z,7.83
2018-09-17T20:42:51.626Z,8.20
2018-09-17T20:45:20.303Z,9.17
2018-09-17T20:47:48.948Z,9.57
2018-09-17T20:50:17.624Z,10.07
2018-09-17T20:52:46.227Z,11.10
2018-09-17T20:55:14.892Z,10.53
2018-09-17T20:57:43.561Z,9.87
2018-09-17T21:00:12.383Z,11.57
2018-09-17T21:02:41.012Z,10.47
2018-09-17T21:05:09.631Z,10.13
2018-09-17T21:07:38.299Z,10.13
2018-09-17T21:10:06.967Z,9.70
2018-09-17T21:12:35.617Z,11.00
2018-09-17T21:15:04.308Z,10.23
2018-09-17T21:17:32.935Z,10.93
2018-09-17T21:20:01.623Z,10.53
2018-09-17T21:22:30.264Z,10.43
2018-09-17T21:24:59.003Z,9.80
2018-09-17T21:27:27.583Z,10.37
2018-09-17T21:29:56.259Z,10.43
2018-09-17T21:32:24.924Z,10.27
2018-09-17T21:34:53.867Z,10.30
2018-09-17T21:37:22.860Z,10.30
2018-09-17T21:39:51.510Z,10.57
2018-09-17T21:42:20.121Z,9.40
2018-09-17T21:44:48.832Z,10.00
2018-09-17T21:47:17.479Z,9.73
2018-09-17T21:49:46.137Z,10.33
2018-09-17T21:52:14.862Z,10.50
2018-09-17T21:54:43.570Z,10.50
2018-09-17T21:57:12.178Z,11.87
2018-09-17T21:59:40.801Z,11.77
2018-09-17T22:02:09.539Z,11.13
2018-09-17T22:04:38.188Z,11.97
2018-09-17T22:07:06.831Z,12.37
2018-09-17T22:09:35.483Z,12.37
2018-09-17T22:12:04.135Z,12.40
2018-09-17T22:14:32.807Z,11.97
2018-09-17T22:17:01.475Z,12.13
2018-09-17T22:19:30.099Z,13.03
2018-09-17T22:21:58.781Z,11.73
2018-09-17T22:24:27.426Z,12.77
2018-09-17T22:26:56.088Z,12.93
2018-09-17T22:29:24.767Z,12.77
2018-09-17T22:31:53.382Z,13.63
2018-09-17T22:34:22.172Z,12.10
2018-09-17T22:36:50.804Z,12.50
2018-09-17T22:39:19.467Z,12.90
2018-09-17T22:41:48.112Z,11.83
2018-09-17T22:44:16.756Z,11.60
2018-09-17T22:46:45.509Z,11.80
2018-09-17T22:49:14.164Z,11.93
2018-09-17T22:51:42.800Z,11.40
2018-09-17T22:54:11.523Z,13.40
2018-09-17T22:56:40.160Z,12.03
2018-09-17T22:59:08.840Z,12.87
2018-09-17T23:01:37.511Z,13.60
2018-09-17T23:04:06.201Z,12.87
2018-09-17T23:06:34.838Z,14.93
2018-09-17T23:09:03.807Z,15.00
2018-09-17T23:11:32.411Z,16.23
2018-09-17T23:14:01.040Z,17.47
2018-09-17T23:16:29.692Z,15.93
2018-09-17T23:18:58.324Z,17.03
2018-09-17T23:21:26.935Z,16.70
2018-09-17T23:23:55.571Z,15.70
2018-09-17T23:26:24.232Z,16.20
2018-09-17T23:28:52.884Z,15.00
2018-09-17T23:31:21.575Z,16.10
2018-09-17T23:33:50.246Z,16.20
2018-09-17T23:36:18.860Z,16.57
2018-09-17T23:38:47.510Z,15.97
2018-09-17T23:41:16.127Z,16.97
2018-09-17T23:43:44.892Z,15.40
2018-09-17T23:46:13.503Z,16.40
2018-09-17T23:48:42.203Z,15.47
2018-09-17T23:51:10.879Z,15.80
2018-09-17T23:53:39.555Z,16.17
2018-09-17T23:56:08.213Z,15.27
2018-09-17T23:58:36.831Z,16.30
